sensor_id;sensor_type;location;lat;lon;timestamp;temperature;humidity
18365;DHT22;9309;52.126;11.616;2023-05-17T00:01:16;8.20;66.60
18365;DHT22;9309;52.126;11.616;2023-05-17T00:03:44;8.20;66.70
18365;DHT22;9309;52.126;11.616;2023-05-17T00:06:11;8.20;66.60
18365;DHT22;9309;52.126;11.616;2023-05-17T00:08:38;8.10;67.10
18365;DHT22;9309;52.126;11.616;2023-05-17T00:11:04;7.90;68.30
18365;DHT22;9309;52.126;11.616;2023-05-17T00:13:31;7.90;68.10
18365;DHT22;9309;52.126;11.616;2023-05-17T00:15:58;7.80;68.90
18365;DHT22;9309;52.126;11.616;2023-05-17T00:18:25;7.80;68.40
18365;DHT22;9309;52.126;11.616;2023-05-17T00:20:53;7.90;68.30
18365;DHT22;9309;52.126;11.616;2023-05-17T00:23:19;8.00;68.30
18365;DHT22;9309;52.126;11.616;2023-05-17T00:25:46;8.00;67.90
18365;DHT22;9309;52.126;11.616;2023-05-17T00:28:13;8.00;68.00
18365;DHT22;9309;52.126;11.616;2023-05-17T00:30:39;7.90;68.30
18365;DHT22;9309;52.126;11.616;2023-05-17T00:33:06;7.90;68.50
18365;DHT22;9309;52.126;11.616;2023-05-17T00:35:33;7.90;68.80
18365;DHT22;9309;52.126;11.616;2023-05-17T00:38:01;7.80;69.30
18365;DHT22;9309;52.126;11.616;2023-05-17T00:40:29;7.70;70.10
18365;DHT22;9309;52.126;11.616;2023-05-17T00:42:56;7.70;69.80
18365;DHT22;9309;52.126;11.616;2023-05-17T00:45:22;7.70;70.10
18365;DHT22;9309;52.126;11.616;2023-05-17T00:47:49;7.70;70.00
18365;DHT22;9309;52.126;11.616;2023-05-17T00:50:16;7.50;70.90
18365;DHT22;9309;52.126;11.616;2023-05-17T00:52:43;7.30;72.00
18365;DHT22;9309;52.126;11.616;2023-05-17T00:55:12;7.30;72.00
18365;DHT22;9309;52.126;11.616;2023-05-17T00:57:39;7.30;72.10
18365;DHT22;9309;52.126;11.616;2023-05-17T01:00:07;7.20;73.00
18365;DHT22;9309;52.126;11.616;2023-05-17T01:02:34;7.30;72.70
18365;DHT22;9309;52.126;11.616;2023-05-17T01:05:01;7.40;72.20
18365;DHT22;9309;52.126;11.616;2023-05-17T01:07:27;7.50;71.70
18365;DHT22;9309;52.126;11.616;2023-05-17T01:09:54;7.40;72.40
18365;DHT22;9309;52.126;11.616;2023-05-17T01:12:31;7.40;72.50
18365;DHT22;9309;52.126;11.616;2023-05-17T01:15:07;7.30;72.90
18365;DHT22;9309;52.126;11.616;2023-05-17T01:17:40;7.30;72.90
18365;DHT22;9309;52.126;11.616;2023-05-17T01:20:17;7.40;73.10
18365;DHT22;9309;52.126;11.616;2023-05-17T01:22:51;7.40;72.90
18365;DHT22;9309;52.126;11.616;2023-05-17T01:25:35;7.40;72.70
18365;DHT22;9309;52.126;11.616;2023-05-17T01:28:07;7.30;72.90
18365;DHT22;9309;52.126;11.616;2023-05-17T01:30:36;7.20;73.50
18365;DHT22;9309;52.126;11.616;2023-05-17T01:33:04;7.20;73.50
18365;DHT22;9309;52.126;11.616;2023-05-17T01:35:32;7.20;73.30
18365;DHT22;9309;52.126;11.616;2023-05-17T01:37:59;7.10;73.50
18365;DHT22;9309;52.126;11.616;2023-05-17T01:40:26;7.10;73.80
18365;DHT22;9309;52.126;11.616;2023-05-17T01:42:56;7.00;73.90
18365;DHT22;9309;52.126;11.616;2023-05-17T01:45:30;6.90;74.30
18365;DHT22;9309;52.126;11.616;2023-05-17T01:48:08;6.90;74.70
18365;DHT22;9309;52.126;11.616;2023-05-17T01:50:39;6.80;75.10
18365;DHT22;9309;52.126;11.616;2023-05-17T01:53:10;6.70;75.70
18365;DHT22;9309;52.126;11.616;2023-05-17T01:55:42;6.80;75.70
18365;DHT22;9309;52.126;11.616;2023-05-17T01:58:11;6.80;75.60
18365;DHT22;9309;52.126;11.616;2023-05-17T02:00:43;6.80;75.50
18365;DHT22;9309;52.126;11.616;2023-05-17T02:03:12;6.80;75.50
18365;DHT22;9309;52.126;11.616;2023-05-17T02:05:42;6.80;75.40
18365;DHT22;9309;52.126;11.616;2023-05-17T02:08:09;6.90;75.60
18365;DHT22;9309;52.126;11.616;2023-05-17T02:10:35;6.90;75.50
18365;DHT22;9309;52.126;11.616;2023-05-17T02:13:02;6.90;75.80
18365;DHT22;9309;52.126;11.616;2023-05-17T02:15:30;6.80;76.30
18365;DHT22;9309;52.126;11.616;2023-05-17T02:17:59;6.90;75.80
18365;DHT22;9309;52.126;11.616;2023-05-17T02:20:26;6.80;76.70
18365;DHT22;9309;52.126;11.616;2023-05-17T02:22:53;6.70;78.00
18365;DHT22;9309;52.126;11.616;2023-05-17T02:25:19;6.80;77.00
18365;DHT22;9309;52.126;11.616;2023-05-17T02:27:46;6.90;77.00
18365;DHT22;9309;52.126;11.616;2023-05-17T02:30:13;6.80;77.50
18365;DHT22;9309;52.126;11.616;2023-05-17T02:32:41;7.10;77.20
18365;DHT22;9309;52.126;11.616;2023-05-17T02:35:09;7.00;77.00
18365;DHT22;9309;52.126;11.616;2023-05-17T02:37:36;7.00;77.60
18365;DHT22;9309;52.126;11.616;2023-05-17T02:40:05;7.00;77.80
18365;DHT22;9309;52.126;11.616;2023-05-17T02:42:34;7.00;78.40
18365;DHT22;9309;52.126;11.616;2023-05-17T02:45:02;7.00;78.20
18365;DHT22;9309;52.126;11.616;2023-05-17T02:47:28;7.00;78.10
18365;DHT22;9309;52.126;11.616;2023-05-17T02:49:55;7.00;78.40
18365;DHT22;9309;52.126;11.616;2023-05-17T02:52:23;6.90;78.70
18365;DHT22;9309;52.126;11.616;2023-05-17T02:54:50;6.90;79.40
18365;DHT22;9309;52.126;11.616;2023-05-17T02:57:17;7.00;78.80
18365;DHT22;9309;52.126;11.616;2023-05-17T02:59:44;7.00;78.90
18365;DHT22;9309;52.126;11.616;2023-05-17T03:02:11;6.90;79.30
18365;DHT22;9309;52.126;11.616;2023-05-17T03:04:38;6.80;79.80
18365;DHT22;9309;52.126;11.616;2023-05-17T03:07:05;7.00;79.80
18365;DHT22;9309;52.126;11.616;2023-05-17T03:09:34;6.90;79.30
18365;DHT22;9309;52.126;11.616;2023-05-17T03:12:01;7.00;79.20
18365;DHT22;9309;52.126;11.616;2023-05-17T03:14:31;7.10;78.50
18365;DHT22;9309;52.126;11.616;2023-05-17T03:16:58;7.20;78.70
18365;DHT22;9309;52.126;11.616;2023-05-17T03:19:25;7.10;78.60
18365;DHT22;9309;52.126;11.616;2023-05-17T03:21:52;7.10;78.40
18365;DHT22;9309;52.126;11.616;2023-05-17T03:24:19;7.10;78.80
18365;DHT22;9309;52.126;11.616;2023-05-17T03:26:48;7.00;79.00
18365;DHT22;9309;52.126;11.616;2023-05-17T03:29:15;7.00;79.10
18365;DHT22;9309;52.126;11.616;2023-05-17T03:31:43;7.00;79.30
18365;DHT22;9309;52.126;11.616;2023-05-17T03:34:10;7.00;79.30
18365;DHT22;9309;52.126;11.616;2023-05-17T03:36:38;7.10;79.30
18365;DHT22;9309;52.126;11.616;2023-05-17T03:39:05;7.10;79.20
18365;DHT22;9309;52.126;11.616;2023-05-17T03:41:33;7.10;79.70
18365;DHT22;9309;52.126;11.616;2023-05-17T03:44:01;7.20;79.70
18365;DHT22;9309;52.126;11.616;2023-05-17T03:46:28;7.20;79.60
18365;DHT22;9309;52.126;11.616;2023-05-17T03:48:55;7.20;79.60
18365;DHT22;9309;52.126;11.616;2023-05-17T03:51:22;7.20;79.90
18365;DHT22;9309;52.126;11.616;2023-05-17T03:53:54;7.20;80.20
18365;DHT22;9309;52.126;11.616;2023-05-17T03:56:22;7.20;79.70
18365;DHT22;9309;52.126;11.616;2023-05-17T03:58:53;7.20;80.20
18365;DHT22;9309;52.126;11.616;2023-05-17T04:01:21;7.20;80.20
18365;DHT22;9309;52.126;11.616;2023-05-17T04:03:48;7.30;79.90
18365;DHT22;9309;52.126;11.616;2023-05-17T04:06:15;7.20;80.40
18365;DHT22;9309;52.126;11.616;2023-05-17T04:08:42;7.20;80.30
18365;DHT22;9309;52.126;11.616;2023-05-17T04:11:09;7.20;81.00
18365;DHT22;9309;52.126;11.616;2023-05-17T04:13:38;7.40;80.40
18365;DHT22;9309;52.126;11.616;2023-05-17T04:16:06;7.30;80.40
18365;DHT22;9309;52.126;11.616;2023-05-17T04:18:35;7.30;80.50
18365;DHT22;9309;52.126;11.616;2023-05-17T04:21:03;7.30;80.60
18365;DHT22;9309;52.126;11.616;2023-05-17T04:23:32;7.30;80.70
18365;DHT22;9309;52.126;11.616;2023-05-17T04:26:00;7.20;81.10
18365;DHT22;9309;52.126;11.616;2023-05-17T04:28:29;7.30;80.70
18365;DHT22;9309;52.126;11.616;2023-05-17T04:30:56;7.40;80.80
18365;DHT22;9309;52.126;11.616;2023-05-17T04:33:23;7.50;80.00
18365;DHT22;9309;52.126;11.616;2023-05-17T04:35:53;7.50;79.80
18365;DHT22;9309;52.126;11.616;2023-05-17T04:38:21;7.50;80.30
18365;DHT22;9309;52.126;11.616;2023-05-17T04:40:50;7.70;79.70
18365;DHT22;9309;52.126;11.616;2023-05-17T04:43:17;7.70;79.70
18365;DHT22;9309;52.126;11.616;2023-05-17T04:45:45;7.60;80.10
18365;DHT22;9309;52.126;11.616;2023-05-17T04:48:12;7.70;80.10
18365;DHT22;9309;52.126;11.616;2023-05-17T04:50:44;7.70;79.90
18365;DHT22;9309;52.126;11.616;2023-05-17T04:53:13;7.80;79.40
18365;DHT22;9309;52.126;11.616;2023-05-17T04:55:40;7.80;79.70
18365;DHT22;9309;52.126;11.616;2023-05-17T04:58:10;7.90;79.40
18365;DHT22;9309;52.126;11.616;2023-05-17T05:00:52;8.00;79.30
18365;DHT22;9309;52.126;11.616;2023-05-17T05:03:20;8.00;79.40
18365;DHT22;9309;52.126;11.616;2023-05-17T05:05:48;8.10;79.00
18365;DHT22;9309;52.126;11.616;2023-05-17T05:08:16;8.20;78.70
18365;DHT22;9309;52.126;11.616;2023-05-17T05:10:45;8.30;78.40
18365;DHT22;9309;52.126;11.616;2023-05-17T05:13:14;8.50;77.40
18365;DHT22;9309;52.126;11.616;2023-05-17T05:15:41;8.60;76.80
18365;DHT22;9309;52.126;11.616;2023-05-17T05:18:08;8.60;76.00
18365;DHT22;9309;52.126;11.616;2023-05-17T05:20:35;8.60;75.70
18365;DHT22;9309;52.126;11.616;2023-05-17T05:23:04;8.70;75.50
18365;DHT22;9309;52.126;11.616;2023-05-17T05:25:33;8.80;75.30
18365;DHT22;9309;52.126;11.616;2023-05-17T05:28:00;8.90;74.50
18365;DHT22;9309;52.126;11.616;2023-05-17T05:30:28;8.90;74.00
18365;DHT22;9309;52.126;11.616;2023-05-17T05:32:55;9.00;73.60
18365;DHT22;9309;52.126;11.616;2023-05-17T05:35:22;9.00;73.90
18365;DHT22;9309;52.126;11.616;2023-05-17T05:37:55;9.00;73.30
18365;DHT22;9309;52.126;11.616;2023-05-17T05:40:22;9.00;73.60
18365;DHT22;9309;52.126;11.616;2023-05-17T05:42:51;9.00;73.60
18365;DHT22;9309;52.126;11.616;2023-05-17T05:45:19;9.00;73.40
18365;DHT22;9309;52.126;11.616;2023-05-17T05:47:47;9.20;73.10
18365;DHT22;9309;52.126;11.616;2023-05-17T05:50:14;9.40;72.10
18365;DHT22;9309;52.126;11.616;2023-05-17T05:52:42;9.40;72.00
18365;DHT22;9309;52.126;11.616;2023-05-17T05:55:09;9.40;71.60
18365;DHT22;9309;52.126;11.616;2023-05-17T05:57:36;9.50;71.50
18365;DHT22;9309;52.126;11.616;2023-05-17T06:00:08;9.70;70.90
18365;DHT22;9309;52.126;11.616;2023-05-17T06:02:39;9.90;70.00
18365;DHT22;9309;52.126;11.616;2023-05-17T06:05:07;10.00;70.00
18365;DHT22;9309;52.126;11.616;2023-05-17T06:07:34;10.00;69.50
18365;DHT22;9309;52.126;11.616;2023-05-17T06:10:00;10.10;68.20
18365;DHT22;9309;52.126;11.616;2023-05-17T06:12:27;10.30;67.40
18365;DHT22;9309;52.126;11.616;2023-05-17T06:14:54;10.30;65.90
18365;DHT22;9309;52.126;11.616;2023-05-17T06:17:22;10.30;65.30
18365;DHT22;9309;52.126;11.616;2023-05-17T06:19:48;10.30;65.80
18365;DHT22;9309;52.126;11.616;2023-05-17T06:22:16;10.30;63.70
18365;DHT22;9309;52.126;11.616;2023-05-17T06:24:43;10.20;64.10
18365;DHT22;9309;52.126;11.616;2023-05-17T06:27:10;10.00;65.00
18365;DHT22;9309;52.126;11.616;2023-05-17T06:29:37;10.10;65.00
18365;DHT22;9309;52.126;11.616;2023-05-17T06:32:08;10.00;64.60
18365;DHT22;9309;52.126;11.616;2023-05-17T06:34:57;9.90;64.00
18365;DHT22;9309;52.126;11.616;2023-05-17T06:37:25;10.20;63.90
18365;DHT22;9309;52.126;11.616;2023-05-17T06:40:06;10.40;63.30
18365;DHT22;9309;52.126;11.616;2023-05-17T06:42:41;10.50;63.30
18365;DHT22;9309;52.126;11.616;2023-05-17T06:45:09;10.50;61.50
18365;DHT22;9309;52.126;11.616;2023-05-17T06:47:36;10.70;61.40
18365;DHT22;9309;52.126;11.616;2023-05-17T06:50:05;10.80;61.30
18365;DHT22;9309;52.126;11.616;2023-05-17T06:52:33;10.80;59.90
18365;DHT22;9309;52.126;11.616;2023-05-17T06:55:00;10.60;59.90
18365;DHT22;9309;52.126;11.616;2023-05-17T06:57:26;10.40;60.80
18365;DHT22;9309;52.126;11.616;2023-05-17T06:59:53;10.30;61.50
18365;DHT22;9309;52.126;11.616;2023-05-17T07:02:20;10.70;60.80
18365;DHT22;9309;52.126;11.616;2023-05-17T07:04:47;11.00;59.30
18365;DHT22;9309;52.126;11.616;2023-05-17T07:07:15;11.00;59.40
18365;DHT22;9309;52.126;11.616;2023-05-17T07:09:42;10.90;59.60
18365;DHT22;9309;52.126;11.616;2023-05-17T07:12:09;10.90;60.00
18365;DHT22;9309;52.126;11.616;2023-05-17T07:14:35;11.00;57.90
18365;DHT22;9309;52.126;11.616;2023-05-17T07:17:02;10.90;58.60
18365;DHT22;9309;52.126;11.616;2023-05-17T07:19:29;11.00;57.50
18365;DHT22;9309;52.126;11.616;2023-05-17T07:21:56;11.10;57.00
18365;DHT22;9309;52.126;11.616;2023-05-17T07:24:24;11.20;55.50
18365;DHT22;9309;52.126;11.616;2023-05-17T07:26:51;11.00;56.50
18365;DHT22;9309;52.126;11.616;2023-05-17T07:29:17;11.00;56.10
18365;DHT22;9309;52.126;11.616;2023-05-17T07:31:44;10.80;56.10
18365;DHT22;9309;52.126;11.616;2023-05-17T07:34:12;10.80;56.10
18365;DHT22;9309;52.126;11.616;2023-05-17T07:36:38;11.20;55.50
18365;DHT22;9309;52.126;11.616;2023-05-17T07:39:05;11.20;55.40
18365;DHT22;9309;52.126;11.616;2023-05-17T07:41:35;11.10;53.30
18365;DHT22;9309;52.126;11.616;2023-05-17T07:44:03;11.00;53.50
18365;DHT22;9309;52.126;11.616;2023-05-17T07:46:30;11.00;54.40
18365;DHT22;9309;52.126;11.616;2023-05-17T07:48:57;10.90;53.40
18365;DHT22;9309;52.126;11.616;2023-05-17T07:51:23;10.60;53.20
18365;DHT22;9309;52.126;11.616;2023-05-17T07:53:50;10.60;53.40
18365;DHT22;9309;52.126;11.616;2023-05-17T07:56:17;10.50;54.40
18365;DHT22;9309;52.126;11.616;2023-05-17T07:58:45;10.50;53.90
18365;DHT22;9309;52.126;11.616;2023-05-17T08:01:12;10.40;53.40
18365;DHT22;9309;52.126;11.616;2023-05-17T08:03:40;10.20;53.20
18365;DHT22;9309;52.126;11.616;2023-05-17T08:06:12;10.30;53.90
18365;DHT22;9309;52.126;11.616;2023-05-17T08:08:39;10.50;54.00
18365;DHT22;9309;52.126;11.616;2023-05-17T08:11:06;10.80;53.50
18365;DHT22;9309;52.126;11.616;2023-05-17T08:13:33;11.10;52.40
18365;DHT22;9309;52.126;11.616;2023-05-17T08:16:01;11.10;51.60
18365;DHT22;9309;52.126;11.616;2023-05-17T08:18:28;11.00;51.50
18365;DHT22;9309;52.126;11.616;2023-05-17T08:20:55;11.20;49.20
18365;DHT22;9309;52.126;11.616;2023-05-17T08:23:22;11.40;49.40
18365;DHT22;9309;52.126;11.616;2023-05-17T08:25:49;11.70;48.10
18365;DHT22;9309;52.126;11.616;2023-05-17T08:28:16;11.80;48.40
18365;DHT22;9309;52.126;11.616;2023-05-17T08:30:43;11.90;47.80
18365;DHT22;9309;52.126;11.616;2023-05-17T08:33:11;11.90;47.60
18365;DHT22;9309;52.126;11.616;2023-05-17T08:35:38;11.80;47.80
18365;DHT22;9309;52.126;11.616;2023-05-17T08:38:05;11.60;47.80
18365;DHT22;9309;52.126;11.616;2023-05-17T08:40:33;11.70;47.60
18365;DHT22;9309;52.126;11.616;2023-05-17T08:43:01;11.60;47.30
18365;DHT22;9309;52.126;11.616;2023-05-17T08:45:30;11.60;47.70
18365;DHT22;9309;52.126;11.616;2023-05-17T08:47:57;11.90;47.10
18365;DHT22;9309;52.126;11.616;2023-05-17T08:50:28;12.00;47.30
18365;DHT22;9309;52.126;11.616;2023-05-17T08:52:56;12.10;46.70
18365;DHT22;9309;52.126;11.616;2023-05-17T08:55:25;12.20;46.00
18365;DHT22;9309;52.126;11.616;2023-05-17T08:57:54;12.40;45.50
18365;DHT22;9309;52.126;11.616;2023-05-17T09:00:22;12.50;45.70
18365;DHT22;9309;52.126;11.616;2023-05-17T09:02:50;12.50;46.40
18365;DHT22;9309;52.126;11.616;2023-05-17T09:05:17;12.60;46.60
18365;DHT22;9309;52.126;11.616;2023-05-17T09:07:46;13.00;45.40
18365;DHT22;9309;52.126;11.616;2023-05-17T09:10:13;12.70;43.90
18365;DHT22;9309;52.126;11.616;2023-05-17T09:12:40;12.50;45.90
18365;DHT22;9309;52.126;11.616;2023-05-17T09:15:12;12.60;45.50
18365;DHT22;9309;52.126;11.616;2023-05-17T09:17:40;12.60;45.60
18365;DHT22;9309;52.126;11.616;2023-05-17T09:20:08;12.80;44.90
18365;DHT22;9309;52.126;11.616;2023-05-17T09:22:35;12.80;44.90
18365;DHT22;9309;52.126;11.616;2023-05-17T09:25:05;12.60;45.00
18365;DHT22;9309;52.126;11.616;2023-05-17T09:27:32;12.20;44.70
18365;DHT22;9309;52.126;11.616;2023-05-17T09:30:00;12.00;44.50
18365;DHT22;9309;52.126;11.616;2023-05-17T09:32:27;12.00;44.90
18365;DHT22;9309;52.126;11.616;2023-05-17T09:34:53;12.20;43.80
18365;DHT22;9309;52.126;11.616;2023-05-17T09:37:22;12.40;44.50
18365;DHT22;9309;52.126;11.616;2023-05-17T09:39:50;12.80;43.80
18365;DHT22;9309;52.126;11.616;2023-05-17T09:42:24;13.10;43.70
18365;DHT22;9309;52.126;11.616;2023-05-17T09:44:54;13.30;43.10
18365;DHT22;9309;52.126;11.616;2023-05-17T09:47:23;13.00;43.30
18365;DHT22;9309;52.126;11.616;2023-05-17T09:49:50;12.50;44.10
18365;DHT22;9309;52.126;11.616;2023-05-17T09:52:18;12.50;44.50
18365;DHT22;9309;52.126;11.616;2023-05-17T09:54:52;12.50;44.00
18365;DHT22;9309;52.126;11.616;2023-05-17T09:57:21;12.70;43.60
18365;DHT22;9309;52.126;11.616;2023-05-17T09:59:49;12.90;43.60
18365;DHT22;9309;52.126;11.616;2023-05-17T10:02:20;13.00;43.90
18365;DHT22;9309;52.126;11.616;2023-05-17T10:04:49;12.90;43.40
18365;DHT22;9309;52.126;11.616;2023-05-17T10:07:20;13.00;43.30
18365;DHT22;9309;52.126;11.616;2023-05-17T10:09:47;13.30;42.60
18365;DHT22;9309;52.126;11.616;2023-05-17T10:12:16;13.60;42.70
18365;DHT22;9309;52.126;11.616;2023-05-17T10:14:45;13.60;41.40
18365;DHT22;9309;52.126;11.616;2023-05-17T10:17:13;13.50;40.90
18365;DHT22;9309;52.126;11.616;2023-05-17T10:19:41;13.60;40.10
18365;DHT22;9309;52.126;11.616;2023-05-17T10:22:10;13.50;40.70
18365;DHT22;9309;52.126;11.616;2023-05-17T10:24:39;13.70;40.40
18365;DHT22;9309;52.126;11.616;2023-05-17T10:27:07;14.00;40.20
18365;DHT22;9309;52.126;11.616;2023-05-17T10:29:35;15.00;39.40
18365;DHT22;9309;52.126;11.616;2023-05-17T10:32:06;15.30;37.10
18365;DHT22;9309;52.126;11.616;2023-05-17T10:34:33;14.70;36.60
18365;DHT22;9309;52.126;11.616;2023-05-17T10:37:00;14.90;37.20
18365;DHT22;9309;52.126;11.616;2023-05-17T10:39:28;14.90;36.30
18365;DHT22;9309;52.126;11.616;2023-05-17T10:41:57;15.20;36.50
18365;DHT22;9309;52.126;11.616;2023-05-17T10:44:25;15.40;36.90
18365;DHT22;9309;52.126;11.616;2023-05-17T10:46:54;16.30;35.80
18365;DHT22;9309;52.126;11.616;2023-05-17T10:49:24;18.80;32.90
18365;DHT22;9309;52.126;11.616;2023-05-17T10:51:52;18.90;32.30
18365;DHT22;9309;52.126;11.616;2023-05-17T10:54:20;17.50;33.10
18365;DHT22;9309;52.126;11.616;2023-05-17T10:56:47;18.20;32.40
18365;DHT22;9309;52.126;11.616;2023-05-17T10:59:16;18.90;32.00
18365;DHT22;9309;52.126;11.616;2023-05-17T11:02:01;18.90;31.60
18365;DHT22;9309;52.126;11.616;2023-05-17T11:04:33;20.40;29.90
18365;DHT22;9309;52.126;11.616;2023-05-17T11:07:19;22.30;28.10
18365;DHT22;9309;52.126;11.616;2023-05-17T11:09:49;22.00;27.90
18365;DHT22;9309;52.126;11.616;2023-05-17T11:12:27;20.00;30.10
18365;DHT22;9309;52.126;11.616;2023-05-17T11:14:55;19.60;31.10
18365;DHT22;9309;52.126;11.616;2023-05-17T11:17:23;21.00;29.80
18365;DHT22;9309;52.126;11.616;2023-05-17T11:20:03;22.50;28.00
18365;DHT22;9309;52.126;11.616;2023-05-17T11:22:36;23.70;26.10
18365;DHT22;9309;52.126;11.616;2023-05-17T11:25:09;23.20;26.30
18365;DHT22;9309;52.126;11.616;2023-05-17T11:27:44;21.40;28.60
18365;DHT22;9309;52.126;11.616;2023-05-17T11:30:21;22.90;26.50
18365;DHT22;9309;52.126;11.616;2023-05-17T11:32:49;24.00;25.70
18365;DHT22;9309;52.126;11.616;2023-05-17T11:35:25;24.60;24.80
18365;DHT22;9309;52.126;11.616;2023-05-17T11:37:52;25.00;24.20
18365;DHT22;9309;52.126;11.616;2023-05-17T11:40:26;24.20;25.40
18365;DHT22;9309;52.126;11.616;2023-05-17T11:43:10;22.20;27.30
18365;DHT22;9309;52.126;11.616;2023-05-17T11:45:44;19.60;29.90
18365;DHT22;9309;52.126;11.616;2023-05-17T11:48:12;19.60;30.70
18365;DHT22;9309;52.126;11.616;2023-05-17T11:50:41;20.90;28.90
18365;DHT22;9309;52.126;11.616;2023-05-17T11:53:09;23.60;26.40
18365;DHT22;9309;52.126;11.616;2023-05-17T11:55:37;25.20;24.20
18365;DHT22;9309;52.126;11.616;2023-05-17T11:58:07;24.90;23.70
18365;DHT22;9309;52.126;11.616;2023-05-17T12:00:35;25.60;23.50
18365;DHT22;9309;52.126;11.616;2023-05-17T12:03:20;27.30;21.60
18365;DHT22;9309;52.126;11.616;2023-05-17T12:05:49;27.00;22.00
18365;DHT22;9309;52.126;11.616;2023-05-17T12:08:18;28.60;20.90
18365;DHT22;9309;52.126;11.616;2023-05-17T12:10:49;27.90;21.20
18365;DHT22;9309;52.126;11.616;2023-05-17T12:13:17;26.10;22.10
18365;DHT22;9309;52.126;11.616;2023-05-17T12:15:45;23.30;24.30
18365;DHT22;9309;52.126;11.616;2023-05-17T12:18:14;23.60;25.10
18365;DHT22;9309;52.126;11.616;2023-05-17T12:20:58;24.70;23.90
18365;DHT22;9309;52.126;11.616;2023-05-17T12:23:28;25.90;22.90
18365;DHT22;9309;52.126;11.616;2023-05-17T12:26:07;26.70;22.80
18365;DHT22;9309;52.126;11.616;2023-05-17T12:28:35;27.50;21.70
18365;DHT22;9309;52.126;11.616;2023-05-17T12:31:03;26.00;23.40
18365;DHT22;9309;52.126;11.616;2023-05-17T12:33:34;26.10;23.10
18365;DHT22;9309;52.126;11.616;2023-05-17T12:36:03;26.70;22.60
18365;DHT22;9309;52.126;11.616;2023-05-17T12:38:31;27.90;21.10
18365;DHT22;9309;52.126;11.616;2023-05-17T12:41:00;26.90;22.00
18365;DHT22;9309;52.126;11.616;2023-05-17T12:43:27;26.70;22.10
18365;DHT22;9309;52.126;11.616;2023-05-17T12:46:01;26.20;22.50
18365;DHT22;9309;52.126;11.616;2023-05-17T12:48:29;26.90;20.80
18365;DHT22;9309;52.126;11.616;2023-05-17T12:50:56;25.80;21.90
18365;DHT22;9309;52.126;11.616;2023-05-17T12:53:33;25.50;22.80
18365;DHT22;9309;52.126;11.616;2023-05-17T12:56:01;26.80;21.90
18365;DHT22;9309;52.126;11.616;2023-05-17T12:58:27;24.10;23.80
18365;DHT22;9309;52.126;11.616;2023-05-17T13:00:57;22.50;25.90
18365;DHT22;9309;52.126;11.616;2023-05-17T13:03:25;23.30;25.50
18365;DHT22;9309;52.126;11.616;2023-05-17T13:06:02;22.90;26.10
18365;DHT22;9309;52.126;11.616;2023-05-17T13:08:31;24.50;24.60
18365;DHT22;9309;52.126;11.616;2023-05-17T13:11:08;25.60;23.30
18365;DHT22;9309;52.126;11.616;2023-05-17T13:13:35;25.90;22.90
18365;DHT22;9309;52.126;11.616;2023-05-17T13:16:02;25.40;23.40
18365;DHT22;9309;52.126;11.616;2023-05-17T13:18:29;25.80;23.60
18365;DHT22;9309;52.126;11.616;2023-05-17T13:21:00;26.00;22.70
18365;DHT22;9309;52.126;11.616;2023-05-17T13:23:27;26.00;22.80
18365;DHT22;9309;52.126;11.616;2023-05-17T13:25:54;25.70;23.30
18365;DHT22;9309;52.126;11.616;2023-05-17T13:28:21;26.60;22.20
18365;DHT22;9309;52.126;11.616;2023-05-17T13:30:49;27.20;21.50
18365;DHT22;9309;52.126;11.616;2023-05-17T13:33:17;26.70;22.00
18365;DHT22;9309;52.126;11.616;2023-05-17T13:35:44;25.20;22.30
18365;DHT22;9309;52.126;11.616;2023-05-17T13:38:11;25.00;21.90
18365;DHT22;9309;52.126;11.616;2023-05-17T13:40:38;24.10;22.90
18365;DHT22;9309;52.126;11.616;2023-05-17T13:43:06;23.50;23.70
18365;DHT22;9309;52.126;11.616;2023-05-17T13:45:34;24.20;23.20
18365;DHT22;9309;52.126;11.616;2023-05-17T13:48:01;23.40;23.80
18365;DHT22;9309;52.126;11.616;2023-05-17T13:50:27;23.50;23.90
18365;DHT22;9309;52.126;11.616;2023-05-17T13:52:54;24.30;23.90
18365;DHT22;9309;52.126;11.616;2023-05-17T13:55:21;23.70;24.00
18365;DHT22;9309;52.126;11.616;2023-05-17T13:57:48;22.10;25.90
18365;DHT22;9309;52.126;11.616;2023-05-17T14:00:16;22.80;25.50
18365;DHT22;9309;52.126;11.616;2023-05-17T14:02:43;23.50;25.00
18365;DHT22;9309;52.126;11.616;2023-05-17T14:05:09;23.70;24.50
18365;DHT22;9309;52.126;11.616;2023-05-17T14:07:36;24.30;24.10
18365;DHT22;9309;52.126;11.616;2023-05-17T14:10:06;23.70;24.50
18365;DHT22;9309;52.126;11.616;2023-05-17T14:12:33;21.60;26.70
18365;DHT22;9309;52.126;11.616;2023-05-17T14:15:01;19.80;29.00
18365;DHT22;9309;52.126;11.616;2023-05-17T14:17:29;19.40;29.80
18365;DHT22;9309;52.126;11.616;2023-05-17T14:19:55;19.00;29.90
18365;DHT22;9309;52.126;11.616;2023-05-17T14:22:22;18.20;30.80
18365;DHT22;9309;52.126;11.616;2023-05-17T14:24:49;17.30;32.10
18365;DHT22;9309;52.126;11.616;2023-05-17T14:27:15;16.80;33.00
18365;DHT22;9309;52.126;11.616;2023-05-17T14:29:42;16.80;33.10
18365;DHT22;9309;52.126;11.616;2023-05-17T14:32:09;16.70;33.60
18365;DHT22;9309;52.126;11.616;2023-05-17T14:34:38;17.00;33.50
18365;DHT22;9309;52.126;11.616;2023-05-17T14:37:05;17.20;32.50
18365;DHT22;9309;52.126;11.616;2023-05-17T14:39:31;17.10;32.20
18365;DHT22;9309;52.126;11.616;2023-05-17T14:41:58;17.10;32.20
18365;DHT22;9309;52.126;11.616;2023-05-17T14:44:25;17.00;33.00
18365;DHT22;9309;52.126;11.616;2023-05-17T14:46:52;16.90;32.80
18365;DHT22;9309;52.126;11.616;2023-05-17T14:49:18;17.00;32.90
18365;DHT22;9309;52.126;11.616;2023-05-17T14:51:46;16.80;33.50
18365;DHT22;9309;52.126;11.616;2023-05-17T14:54:13;16.80;33.20
18365;DHT22;9309;52.126;11.616;2023-05-17T14:56:41;16.80;33.40
18365;DHT22;9309;52.126;11.616;2023-05-17T14:59:07;16.70;33.40
18365;DHT22;9309;52.126;11.616;2023-05-17T15:01:34;16.60;33.60
18365;DHT22;9309;52.126;11.616;2023-05-17T15:04:01;16.70;33.10
18365;DHT22;9309;52.126;11.616;2023-05-17T15:06:28;16.60;33.70
18365;DHT22;9309;52.126;11.616;2023-05-17T15:08:56;16.80;33.50
18365;DHT22;9309;52.126;11.616;2023-05-17T15:11:22;16.90;33.60
18365;DHT22;9309;52.126;11.616;2023-05-17T15:13:49;16.90;33.60
18365;DHT22;9309;52.126;11.616;2023-05-17T15:16:16;16.70;33.80
18365;DHT22;9309;52.126;11.616;2023-05-17T15:18:42;16.50;33.70
18365;DHT22;9309;52.126;11.616;2023-05-17T15:21:09;16.50;34.50
18365;DHT22;9309;52.126;11.616;2023-05-17T15:23:36;16.50;33.30
18365;DHT22;9309;52.126;11.616;2023-05-17T15:26:04;16.40;33.70
18365;DHT22;9309;52.126;11.616;2023-05-17T15:28:30;16.40;33.30
18365;DHT22;9309;52.126;11.616;2023-05-17T15:31:00;16.50;33.70
18365;DHT22;9309;52.126;11.616;2023-05-17T15:33:27;16.50;33.90
18365;DHT22;9309;52.126;11.616;2023-05-17T15:35:55;16.40;34.30
18365;DHT22;9309;52.126;11.616;2023-05-17T15:38:21;16.30;34.20
18365;DHT22;9309;52.126;11.616;2023-05-17T15:40:59;16.50;34.40
18365;DHT22;9309;52.126;11.616;2023-05-17T15:43:29;16.60;34.50
18365;DHT22;9309;52.126;11.616;2023-05-17T15:45:56;16.50;35.20